This is the latest recevied weather packets stored in our database for station/object WW0K. If no packets are shown the sender has not sent any weather packets the latest 10 day(s).
| Time | Temp. | Humidity | Pressure | Rain* | Wind** | Luminosity | Snow |
|---|---|---|---|---|---|---|---|
| 1777424719 | 12.22° C | 60% | - | 0 mm | - | - | - |
| 1777424124 | 12.78° C | 59% | - | 0 mm | - | - | - |
| 1777423530 | 12.78° C | 57% | - | 0 mm | - | - | - |
| 1777418725 | 13.33° C | 51% | - | 0 mm | - | - | - |
| 1777416351 | 13.33° C | 47% | - | 0 mm | - | - | - |
| 1777415738 | 13.89° C | 46% | - | 0 mm | - | - | - |
| 1777413936 | 14.44° C | 46% | - | 0 mm | - | - | - |
| 1777407330 | 15.56° C | 43% | - | 0 mm | - | - | - |
| 1777406143 | 14.44° C | 47% | - | 0 mm | - | - | - |
| 1777404363 | 16.11° C | 47% | - | 0 mm | - | - | - |
| 1777401928 | 13.89° C | 53% | - | 0 mm | - | - | - |
| 1777400723 | 13.33° C | 54% | - | 0 mm | - | - | - |
| 1777400129 | 13.33° C | 56% | - | 0 mm | - | - | - |
| 1777399535 | 13.33° C | 55% | - | 0 mm | - | - | - |
| 1777397122 | 13.89° C | 55% | - | 0 mm | - | - | - |
| 1777396528 | 12.78° C | 57% | - | 0 mm | - | - | - |
| 1777395954 | 11.67° C | 60% | - | 0 mm | - | - | - |
| 1777394134 | 11.11° C | 63% | - | 0 mm | - | - | - |
| 1777392333 | 11.11° C | 63% | - | 0 mm | - | - | - |
| 1777389921 | 11.11° C | 65% | - | 0 mm | - | - | - |
| 1777388142 | 10° C | 68% | - | 0 mm | - | - | - |
| 1777386933 | 9.44° C | 71% | - | 0 mm | - | - | - |
| 1777385727 | 10° C | 69% | - | 0 mm | - | - | - |
| 1777384541 | 10° C | 70% | - | 0 mm | - | - | - |
| 1777378546 | 6.67° C | 85% | - | 0 mm | - | - | - |
* Rain latest hour (hover to see other rain measurements)
** Current wind speed in m/s (hover to see current wind gust speed)